City Of Vicksburg — WDC2660 — position and weather

sailwx.info

Track history (hours):
 
Tides and Currents Weather Stations Pressure Air Temp Water Temp Dewpoint Dewpoint Depression Visibility Wind Speed Wind Dir Waves Ship Positions

City Of Vicksburg

Owner: Kirby Inland Marine LP, Houston, TX. More information available from US FCC via Universal Licensing System and Coast Guard Vessel Documentation Center.

Last reported at 2018-Jun-23 02:29 UTC. Time now 2018-Jun-24 01:36 UTC.
Position N 32°59' W 091°10'.

Length 350 m; draft 3 m.

Type: . MMSI: 366996120.

Date/timePositionNaut miles runAvg speedWind from/ knotsBaromVisibWave heightAir tempDewpointWater temp
2018-Jun-23 02:29N 32°59' W 091°10'2 4.2
2018-Jun-23 02:00N 32°57' W 091°09'3 4.2
2018-Jun-23 01:22N 32°57' W 091°06'8 1.9
2018-Jun-22 21:11N 32°50' W 091°09'1 4.3
2018-Jun-22 20:59N 32°49' W 091°09'2 5.0
2018-Jun-22 20:30N 32°46' W 091°09'5 2.7
2018-Jun-22 18:35N 32°44' W 091°04'0 5.1
2018-Jun-22 18:30N 32°44' W 091°04'2 4.2
2018-Jun-22 17:58N 32°41' W 091°04'2 5.4
2018-Jun-22 17:30N 32°40' W 091°07'3 3.6
2018-Jun-22 16:36N 32°38' W 091°09'0 4.6
2018-Jun-22 16:30N 32°37' W 091°09'2 4.7
2018-Jun-22 16:00N 32°35' W 091°08'2 4.9
2018-Jun-22 15:30N 32°33' W 091°06'3 5.0
2018-Jun-22 14:58N 32°31' W 091°07'2 5.2
2018-Jun-22 14:30N 32°28' W 091°06'3 5.2
2018-Jun-22 14:00N 32°27' W 091°04'3 5.3
2018-Jun-22 13:30N 32°26' W 091°01'2 4.3
2018-Jun-22 13:00N 32°24' W 090°59'3 5.1
2018-Jun-22 12:30N 32°22' W 091°00'3 5.1
2018-Jun-22 12:00N 32°21' W 090°57'0 0.9
2018-Jun-22 11:31N 32°21' W 090°57'2 4.1
2018-Jun-22 11:01N 32°20' W 090°54'2 4.2
2018-Jun-22 10:30N 32°18' W 090°55'3 5.3
2018-Jun-22 10:00N 32°17' W 090°57'2 4.6
2018-Jun-22 09:30N 32°15' W 090°59'3 5.3
2018-Jun-22 09:01N 32°12' W 090°59'2 4.8
2018-Jun-22 08:30N 32°10' W 091°00'2 4.8
2018-Jun-22 08:00N 32°08' W 091°01'2 4.5
2018-Jun-22 07:30N 32°08' W 091°04'2 4.9
2018-Jun-22 07:01N 32°08' W 091°06'5 4.7
2018-Jun-22 05:59N 32°04' W 091°03'3 5.5
2018-Jun-22 05:30N 32°01' W 091°04'6 4.9
2018-Jun-22 04:13N 31°58' W 091°11'  
2018-Jun-18 15:14N 31°59' W 091°07'2 9.2
2018-Jun-18 15:00N 32°00' W 091°05'4 8.6
2018-Jun-18 14:29N 32°05' W 091°04'3 6.9
2018-Jun-18 14:00N 32°08' W 091°06'4 8.0
2018-Jun-18 13:30N 32°07' W 091°01'5 9.4
2018-Jun-18 13:00N 32°12' W 090°59'5 9.4
2018-Jun-18 12:30N 32°16' W 090°57'4 8.6
2018-Jun-18 12:00N 32°20' W 090°54'3 5.5
2018-Jun-18 11:30N 32°21' W 090°57'3 6.4
2018-Jun-18 11:00N 32°23' W 090°60'4 7.7
2018-Jun-18 10:30N 32°26' W 091°02'5 9.2
2018-Jun-18 10:00N 32°29' W 091°07'4 9.1
2018-Jun-18 09:30N 32°33' W 091°06'5 9.0
2018-Jun-18 09:00N 32°37' W 091°09'4 8.2
2018-Jun-18 08:28N 32°40' W 091°06'5 5.2
2018-Jun-18 07:27N 32°45' W 091°09'  
Track history (hours):
 
Tides and Currents Weather Stations Pressure Air Temp Water Temp Dewpoint Dewpoint Depression Visibility Wind Speed Wind Dir Waves Ship Positions

City Of Vicksburg

Owner: Kirby Inland Marine LP, Houston, TX. More information available from US FCC via Universal Licensing System and Coast Guard Vessel Documentation Center.

Last reported at 2018-Jun-23 02:29 UTC. Time now 2018-Jun-24 01:36 UTC.
Position N 32°59' W 091°10'.

Length 350 m; draft 3 m.

Type: . MMSI: 366996120.

Date/timePositionNaut miles runAvg speedWind from/ knotsBaromVisibWave heightAir tempDewpointWater temp
2018-Jun-23 02:29N 32°59' W 091°10'2 4.2
2018-Jun-23 02:00N 32°57' W 091°09'3 4.2
2018-Jun-23 01:22N 32°57' W 091°06'8 1.9
2018-Jun-22 21:11N 32°50' W 091°09'1 4.3
2018-Jun-22 20:59N 32°49' W 091°09'2 5.0
2018-Jun-22 20:30N 32°46' W 091°09'5 2.7
2018-Jun-22 18:35N 32°44' W 091°04'0 5.1
2018-Jun-22 18:30N 32°44' W 091°04'2 4.2
2018-Jun-22 17:58N 32°41' W 091°04'2 5.4
2018-Jun-22 17:30N 32°40' W 091°07'3 3.6
2018-Jun-22 16:36N 32°38' W 091°09'0 4.6
2018-Jun-22 16:30N 32°37' W 091°09'2 4.7
2018-Jun-22 16:00N 32°35' W 091°08'2 4.9
2018-Jun-22 15:30N 32°33' W 091°06'3 5.0
2018-Jun-22 14:58N 32°31' W 091°07'2 5.2
2018-Jun-22 14:30N 32°28' W 091°06'3 5.2
2018-Jun-22 14:00N 32°27' W 091°04'3 5.3
2018-Jun-22 13:30N 32°26' W 091°01'2 4.3
2018-Jun-22 13:00N 32°24' W 090°59'3 5.1
2018-Jun-22 12:30N 32°22' W 091°00'3 5.1
2018-Jun-22 12:00N 32°21' W 090°57'0 0.9
2018-Jun-22 11:31N 32°21' W 090°57'2 4.1
2018-Jun-22 11:01N 32°20' W 090°54'2 4.2
2018-Jun-22 10:30N 32°18' W 090°55'3 5.3
2018-Jun-22 10:00N 32°17' W 090°57'2 4.6
2018-Jun-22 09:30N 32°15' W 090°59'3 5.3
2018-Jun-22 09:01N 32°12' W 090°59'2 4.8
2018-Jun-22 08:30N 32°10' W 091°00'2 4.8
2018-Jun-22 08:00N 32°08' W 091°01'2 4.5
2018-Jun-22 07:30N 32°08' W 091°04'2 4.9
2018-Jun-22 07:01N 32°08' W 091°06'5 4.7
2018-Jun-22 05:59N 32°04' W 091°03'3 5.5
2018-Jun-22 05:30N 32°01' W 091°04'6 4.9
2018-Jun-22 04:13N 31°58' W 091°11'  
2018-Jun-18 15:14N 31°59' W 091°07'2 9.2
2018-Jun-18 15:00N 32°00' W 091°05'4 8.6
2018-Jun-18 14:29N 32°05' W 091°04'3 6.9
2018-Jun-18 14:00N 32°08' W 091°06'4 8.0
2018-Jun-18 13:30N 32°07' W 091°01'5 9.4
2018-Jun-18 13:00N 32°12' W 090°59'5 9.4
2018-Jun-18 12:30N 32°16' W 090°57'4 8.6
2018-Jun-18 12:00N 32°20' W 090°54'3 5.5
2018-Jun-18 11:30N 32°21' W 090°57'3 6.4
2018-Jun-18 11:00N 32°23' W 090°60'4 7.7
2018-Jun-18 10:30N 32°26' W 091°02'5 9.2
2018-Jun-18 10:00N 32°29' W 091°07'4 9.1
2018-Jun-18 09:30N 32°33' W 091°06'5 9.0
2018-Jun-18 09:00N 32°37' W 091°09'4 8.2
2018-Jun-18 08:28N 32°40' W 091°06'5 5.2
2018-Jun-18 07:27N 32°45' W 091°09'  

Dump ship's entire track history